Time;durP1;ratioP1;P1;durP2;ratioP2;P2;SDS_P1;SDS_P2;PMS_P1;PMS_P2;Temp;Humidity;BMP_temperature;BMP_pressure;BME280_temperature;BME280_humidity;BME280_pressure;Samples;Min_cycle;Max_cycle;Signal;HPM_P1;HPM_P2
2022/01/25 00:09:21;;;;;;;9.57;4.72;;;-5.30;99.90;;;;;;5054357;28;20154;-73
2022/01/25 00:31:29;;;;;;;9.55;3.83;;;-5.30;99.90;;;;;;5069275;28;20036;-74
2022/01/25 00:33:51;;;;;;;8.32;3.60;;;-5.30;99.90;;;;;;5069775;28;20048;-73
2022/01/25 00:36:24;;;;;;;8.23;3.55;;;-5.20;99.90;;;;;;5056664;28;20497;-73
2022/01/25 00:38:50;;;;;;;8.52;3.78;;;-5.20;99.90;;;;;;5066867;28;20123;-73
2022/01/25 00:41:17;;;;;;;8.02;4.07;;;-5.10;99.90;;;;;;5071568;28;20119;-72
2022/01/25 00:43:44;;;;;;;7.68;3.65;;;-5.20;99.90;;;;;;5069865;28;20123;-73
2022/01/25 00:46:12;;;;;;;8.05;2.97;;;-5.30;99.90;;;;;;5068261;28;20281;-72
2022/01/25 00:53:59;;;;;;;9.15;3.70;;;-5.40;99.90;;;;;;5059024;28;20033;-73
2022/01/25 00:56:37;;;;;;;9.13;3.90;;;-5.30;99.90;;;;;;5069459;28;20040;-73
2022/01/25 00:59:09;;;;;;;8.05;3.35;;;-5.40;99.90;;;;;;5071365;28;20407;-72
2022/01/25 01:01:38;;;;;;;8.38;3.40;;;-5.40;99.90;;;;;;5068147;28;20104;-73
2022/01/25 01:04:06;;;;;;;10.18;4.78;;;-5.30;99.90;;;;;;5051681;28;20484;-73
2022/01/25 01:06:32;;;;;;;8.20;3.50;;;-5.30;99.90;;;;;;5069784;28;20111;-73
2022/01/25 01:08:58;;;;;;;7.95;3.55;;;-5.40;99.90;;;;;;5070577;28;20043;-72
2022/01/25 01:11:36;;;;;;;8.90;3.83;;;-5.50;99.90;;;;;;5061007;28;20045;-73
2022/01/25 01:14:40;;;;;;;8.02;4.13;;;-5.50;99.90;;;;;;5067779;28;20048;-73
2022/01/25 01:43:58;;;;;;;9.27;4.15;;;-5.50;99.90;;;;;;5070061;28;20020;-75
2022/01/25 01:51:36;;;;;;;9.55;3.88;;;-5.50;99.90;;;;;;5070468;28;20086;-73
2022/01/25 01:54:08;;;;;;;8.57;4.05;;;-5.60;99.90;;;;;;5069824;28;20391;-73
2022/01/25 01:56:35;;;;;;;9.35;4.20;;;-5.50;99.90;;;;;;5067730;28;20029;-74
2022/01/25 01:59:03;;;;;;;7.93;3.67;;;-5.50;99.90;;;;;;5069359;28;20134;-72
2022/01/25 02:01:31;;;;;;;10.18;4.20;;;-5.50;99.90;;;;;;5070176;28;20392;-73
2022/01/25 02:04:00;;;;;;;9.70;3.95;;;-5.50;99.90;;;;;;5069657;28;20468;-73
2022/01/25 02:06:26;;;;;;;7.43;4.10;;;-5.50;99.90;;;;;;5057115;28;20551;-73
2022/01/25 02:08:52;;;;;;;9.77;3.53;;;-5.50;99.90;;;;;;5050337;28;20142;-72
2022/01/25 02:11:19;;;;;;;7.63;3.90;;;-5.50;99.90;;;;;;5068408;28;20105;-73
2022/01/25 02:13:46;;;;;;;8.93;4.05;;;-5.50;99.90;;;;;;5070068;28;20024;-73
2022/01/25 02:16:32;;;;;;;12.43;4.63;;;-5.50;99.90;;;;;;5049969;28;20021;-73
2022/01/25 02:24:32;;;;;;;9.85;4.75;;;-5.50;99.90;;;;;;5061125;28;20094;-73
2022/01/25 02:26:58;;;;;;;9.07;3.67;;;-5.50;99.90;;;;;;5069825;28;20056;-73
2022/01/25 02:29:25;;;;;;;10.13;4.40;;;-5.50;99.90;;;;;;5069130;28;20052;-73
2022/01/25 02:31:53;;;;;;;13.70;4.65;;;-5.40;99.90;;;;;;5067995;28;20048;-73
2022/01/25 02:34:20;;;;;;;10.80;4.85;;;-5.40;99.90;;;;;;5053835;28;20024;-73
2022/01/25 02:36:46;;;;;;;13.63;5.03;;;-5.40;99.90;;;;;;5068065;28;20086;-73
2022/01/25 02:39:11;;;;;;;12.90;5.50;;;-5.40;99.90;;;;;;5067481;28;20021;-73
2022/01/25 02:41:37;;;;;;;8.73;4.43;;;-5.30;99.90;;;;;;5069152;28;20060;-73
2022/01/25 02:44:07;;;;;;;16.52;5.82;;;-5.40;99.90;;;;;;5084283;28;20055;-74
2022/01/25 02:49:01;;;;;;;10.80;5.43;;;-5.40;99.90;;;;;;5068983;28;20061;-73
2022/01/25 02:51:30;;;;;;;12.65;5.60;;;-5.50;99.90;;;;;;5060317;28;20044;-73
2022/01/25 02:53:57;;;;;;;9.55;4.57;;;-5.30;99.90;;;;;;5065647;28;20563;-73
2022/01/25 02:56:24;;;;;;;12.13;4.70;;;-5.40;99.90;;;;;;5069463;28;20029;-73
2022/01/25 02:58:50;;;;;;;10.85;5.25;;;-5.40;99.90;;;;;;5068716;28;20391;-72
2022/01/25 03:01:17;;;;;;;10.70;5.15;;;-5.40;99.90;;;;;;5068479;28;20039;-72
2022/01/25 03:03:43;;;;;;;10.50;4.47;;;-5.50;99.90;;;;;;5069267;28;20496;-74
2022/01/25 03:06:09;;;;;;;11.50;4.40;;;-5.50;99.90;;;;;;5084617;28;20039;-73
2022/01/25 03:08:35;;;;;;;12.00;5.13;;;-5.60;99.90;;;;;;5067659;28;20538;-73
2022/01/25 03:11:01;;;;;;;10.35;4.97;;;-5.70;99.90;;;;;;5071316;28;20032;-72
2022/01/25 03:13:35;;;;;;;11.15;5.22;;;-5.70;99.90;;;;;;5071775;28;20530;-73
2022/01/25 03:16:17;;;;;;;10.05;5.00;;;-5.70;99.90;;;;;;5071345;28;20060;-73
2022/01/25 03:18:45;;;;;;;10.07;4.88;;;-5.70;99.90;;;;;;5070194;28;20032;-73
2022/01/25 03:21:19;;;;;;;14.90;6.18;;;-5.70;99.90;;;;;;5087986;28;20034;-73
2022/01/25 03:23:46;;;;;;;10.85;5.18;;;-5.60;99.90;;;;;;5073127;28;20017;-72
2022/01/25 03:26:12;;;;;;;10.35;4.75;;;-5.60;99.90;;;;;;5073115;28;20033;-74
2022/01/25 03:28:38;;;;;;;8.98;5.28;;;-5.60;99.90;;;;;;5063093;28;20510;-73
2022/01/25 03:31:04;;;;;;;12.95;4.95;;;-5.60;99.90;;;;;;5072504;28;20044;-73
2022/01/25 03:33:30;;;;;;;10.93;5.18;;;-5.60;99.90;;;;;;5071516;28;20149;-72
2022/01/25 03:35:55;;;;;;;11.93;4.20;;;-5.60;99.90;;;;;;5070781;28;20043;-73
2022/01/25 03:38:21;;;;;;;10.63;4.72;;;-5.70;99.90;;;;;;5054346;28;20389;-73
2022/01/25 03:40:48;;;;;;;7.93;3.88;;;-5.60;99.90;;;;;;5067205;28;20029;-73
2022/01/25 03:43:15;;;;;;;9.95;4.60;;;-5.70;99.90;;;;;;5072391;28;20029;-74
2022/01/25 03:45:46;;;;;;;8.95;4.30;;;-5.70;99.90;;;;;;5066896;28;20383;-73
2022/01/25 03:50:42;;;;;;;11.37;4.07;;;-5.70;99.90;;;;;;5066646;28;20109;-74
2022/01/25 03:53:10;;;;;;;10.80;4.47;;;-5.70;99.90;;;;;;5072525;28;20464;-73
2022/01/25 03:55:36;;;;;;;11.35;5.53;;;-5.80;99.90;;;;;;5066658;28;20033;-73
2022/01/25 03:58:03;;;;;;;8.93;3.97;;;-5.80;99.90;;;;;;5067507;28;20091;-72
2022/01/25 04:00:29;;;;;;;9.18;4.47;;;-5.80;99.90;;;;;;5059877;28;20453;-73
2022/01/25 04:03:07;;;;;;;10.93;4.68;;;-5.80;99.90;;;;;;5050985;28;20025;-73
2022/01/25 04:08:10;;;;;;;9.90;4.80;;;-5.80;99.90;;;;;;5072822;28;20029;-73
2022/01/25 04:10:36;;;;;;;11.32;4.60;;;-5.80;99.90;;;;;;5070216;28;20033;-75
2022/01/25 04:13:04;;;;;;;8.93;4.28;;;-5.80;99.90;;;;;;5067049;28;20396;-74
2022/01/25 04:15:30;;;;;;;11.65;4.75;;;-5.60;99.90;;;;;;5081012;28;20036;-73
2022/01/25 04:18:14;;;;;;;8.82;4.72;;;-5.70;99.90;;;;;;5070574;28;20082;-73
2022/01/25 04:20:41;;;;;;;9.25;4.40;;;-5.70;99.90;;;;;;5071149;28;20066;-73
2022/01/25 04:25:51;;;;;;;9.77;4.38;;;-5.70;99.90;;;;;;5068859;28;20581;-72
2022/01/25 04:28:17;;;;;;;9.37;4.47;;;-5.70;99.90;;;;;;5070361;28;20055;-74
2022/01/25 04:30:43;;;;;;;10.77;5.05;;;-5.70;99.90;;;;;;5066007;28;20685;-74
2022/01/25 04:33:23;;;;;;;11.20;5.10;;;-5.70;99.90;;;;;;5051678;28;20029;-73
2022/01/25 04:49:46;;;;;;;10.13;4.50;;;-5.80;99.90;;;;;;5060818;28;20059;-73
2022/01/25 04:52:19;;;;;;;11.85;4.55;;;-5.70;99.90;;;;;;5071165;28;20298;-73
2022/01/25 04:54:56;;;;;;;9.98;4.72;;;-5.70;99.90;;;;;;5070793;28;20080;-73
2022/01/25 04:59:59;;;;;;;9.57;3.95;;;-5.80;99.90;;;;;;5058971;28;20013;-73
2022/01/25 05:05:03;;;;;;;7.97;3.67;;;-6.00;99.90;;;;;;5061264;28;20029;-73
2022/01/25 05:07:40;;;;;;;8.10;3.75;;;-6.00;99.90;;;;;;5058702;28;20059;-73
2022/01/25 05:10:08;;;;;;;7.60;4.55;;;-5.90;99.90;;;;;;5061508;28;20397;-72
2022/01/25 05:12:45;;;;;;;7.50;3.70;;;-5.90;99.90;;;;;;5069073;28;20136;-73
2022/01/25 05:15:25;;;;;;;9.15;4.60;;;-5.90;99.90;;;;;;5067041;28;20137;-74
2022/01/25 05:18:15;;;;;;;10.93;4.88;;;-5.90;99.90;;;;;;5050681;28;20473;-73
2022/01/25 05:23:25;;;;;;;10.45;4.38;;;-6.10;99.90;;;;;;5070561;28;20089;-74
2022/01/25 05:25:51;;;;;;;9.55;4.15;;;-6.10;99.90;;;;;;5053731;28;20032;-73
2022/01/25 05:28:17;;;;;;;8.13;3.95;;;-6.10;99.90;;;;;;5065664;28;20037;-73
2022/01/25 05:30:43;;;;;;;9.18;4.35;;;-6.10;99.90;;;;;;5065739;28;20085;-73
2022/01/25 05:33:08;;;;;;;8.10;4.05;;;-6.00;99.90;;;;;;5068503;28;20104;-73
2022/01/25 05:35:34;;;;;;;10.25;4.80;;;-6.10;99.90;;;;;;5069637;28;20025;-73
2022/01/25 05:38:00;;;;;;;9.00;4.38;;;-6.00;99.90;;;;;;5070232;28;20085;-74
2022/01/25 05:48:22;;;;;;;10.55;4.80;;;-6.10;99.90;;;;;;5069957;28;20550;-72
2022/01/25 05:50:48;;;;;;;10.40;5.28;;;-6.20;99.90;;;;;;5070116;28;20052;-73
2022/01/25 05:53:14;;;;;;;10.80;5.15;;;-6.10;99.90;;;;;;5055789;28;20025;-73
2022/01/25 05:55:39;;;;;;;9.02;4.88;;;-6.10;99.90;;;;;;5065527;28;20111;-73
2022/01/25 05:58:05;;;;;;;7.57;4.30;;;-6.30;99.90;;;;;;5057280;28;20025;-73
2022/01/25 06:00:31;;;;;;;9.65;5.07;;;-6.20;99.90;;;;;;5062027;28;20040;-72
2022/01/25 06:02:57;;;;;;;10.52;5.68;;;-6.20;99.90;;;;;;5064350;28;20129;-73
2022/01/25 06:05:23;;;;;;;8.85;4.63;;;-6.10;99.90;;;;;;5078397;28;20155;-74
2022/01/25 06:07:50;;;;;;;12.07;5.22;;;-6.00;99.90;;;;;;5070570;28;20024;-74
2022/01/25 06:10:16;;;;;;;11.55;5.95;;;-5.90;99.90;;;;;;5068198;28;20178;-74
2022/01/25 06:12:44;;;;;;;8.25;4.30;;;-6.00;99.90;;;;;;5055174;28;20104;-72
2022/01/25 06:15:11;;;;;;;12.80;6.28;;;-5.50;99.90;;;;;;5060799;28;20036;-74
2022/01/25 06:17:37;;;;;;;;;;;-6.00;99.90;;;;;;5068753;28;20064;-62
2022/01/25 06:20:03;;;;;;;12.52;5.32;;;-6.00;99.90;;;;;;5065917;28;20388;-68
2022/01/25 06:22:29;;;;;;;12.00;5.68;;;-5.80;99.90;;;;;;5065806;28;20013;-63
2022/01/25 06:24:55;;;;;;;10.00;5.32;;;-5.70;99.90;;;;;;5070226;28;20641;-63
2022/01/25 06:27:21;;;;;;;11.40;5.53;;;-5.70;99.90;;;;;;5069658;28;20547;-64
2022/01/25 06:29:47;;;;;;;13.40;5.70;;;-5.70;99.90;;;;;;5068162;28;20099;-63
2022/01/25 06:32:14;;;;;;;;;;;-5.60;99.90;;;;;;5070775;28;20071;-64
2022/01/25 06:34:40;;;;;;;10.43;4.80;;;-5.60;99.90;;;;;;5063213;28;19912;-66
2022/01/25 06:37:06;;;;;;;11.02;5.72;;;-5.70;99.90;;;;;;5067437;28;20028;-72
2022/01/25 06:39:32;;;;;;;17.45;8.65;;;-5.60;99.90;;;;;;5068842;28;20024;-73
2022/01/25 06:41:58;;;;;;;12.13;5.97;;;-5.70;99.90;;;;;;5069572;28;20457;-73
2022/01/25 06:44:23;;;;;;;10.40;5.35;;;-5.80;99.90;;;;;;5066070;28;20020;-74
2022/01/25 06:46:49;;;;;;;12.20;5.35;;;-5.80;99.90;;;;;;5070397;28;20040;-73
2022/01/25 06:49:16;;;;;;;10.35;5.53;;;-6.00;99.90;;;;;;5070559;28;20533;-74
2022/01/25 06:51:42;;;;;;;11.73;4.88;;;-6.00;99.90;;;;;;5066485;28;20523;-74
2022/01/25 06:54:08;;;;;;;8.88;5.25;;;-6.10;99.90;;;;;;5068521;28;20123;-74
2022/01/25 06:56:34;;;;;;;7.57;4.40;;;-6.10;99.90;;;;;;5070683;28;20455;-74
2022/01/25 06:59:00;;;;;;;12.07;5.18;;;-6.10;99.90;;;;;;5069481;28;20481;-73
2022/01/25 07:01:26;;;;;;;12.20;5.22;;;-6.10;99.90;;;;;;5071783;28;20042;-74
2022/01/25 07:03:51;;;;;;;9.27;4.30;;;-6.00;99.90;;;;;;5073054;28;20033;-73
2022/01/25 07:06:17;;;;;;;10.93;5.93;;;-6.00;99.90;;;;;;5072127;28;20036;-72
2022/01/25 07:08:45;;;;;;;9.27;5.03;;;-6.00;99.90;;;;;;5060272;28;20028;-74
2022/01/25 07:11:13;;;;;;;11.50;5.50;;;-6.00;99.90;;;;;;5071349;28;20037;-74
2022/01/25 07:13:39;;;;;;;11.85;5.90;;;-5.90;99.90;;;;;;5072985;28;20025;-74
2022/01/25 07:16:05;;;;;;;8.98;5.25;;;-5.90;99.90;;;;;;5072647;28;20033;-75
2022/01/25 07:18:31;;;;;;;12.57;6.18;;;-5.80;99.90;;;;;;5053421;28;20090;-74
2022/01/25 07:20:58;;;;;;;9.88;5.18;;;-5.70;99.90;;;;;;5071123;28;20485;-74
2022/01/25 07:23:23;;;;;;;;;;;-5.70;99.90;;;;;;5072999;28;20119;-74
2022/01/25 07:25:49;;;;;;;9.45;4.78;;;-5.70;99.90;;;;;;5065866;28;20396;-73
2022/01/25 07:28:16;;;;;;;10.40;4.68;;;-5.60;99.90;;;;;;5052886;28;20488;-76
2022/01/25 07:30:42;;;;;;;9.88;5.05;;;-5.60;99.90;;;;;;5067418;28;20113;-74
2022/01/25 07:33:08;;;;;;;7.75;4.80;;;-5.60;99.90;;;;;;5072327;28;20130;-74
2022/01/25 07:35:35;;;;;;;9.40;4.30;;;-5.60;99.90;;;;;;5058193;28;20111;-75
2022/01/25 07:38:02;;;;;;;12.35;6.35;;;-5.60;99.90;;;;;;5052390;28;20555;-74
2022/01/25 07:40:28;;;;;;;15.05;7.13;;;-5.40;99.90;;;;;;5066232;28;20028;-74
2022/01/25 07:42:54;;;;;;;16.48;6.68;;;-5.60;99.90;;;;;;5069931;28;20388;-74
2022/01/25 07:45:21;;;;;;;13.20;6.78;;;-5.70;99.90;;;;;;5071115;28;20051;-74
2022/01/25 07:47:47;;;;;;;13.07;5.65;;;-5.70;99.90;;;;;;5070990;28;20028;-74
2022/01/25 07:50:14;;;;;;;12.20;6.70;;;-5.70;99.90;;;;;;5072209;28;20052;-74
2022/01/25 07:52:40;;;;;;;12.98;6.22;;;-5.60;99.90;;;;;;5066865;28;20429;-74
2022/01/25 07:55:07;;;;;;;12.20;5.63;;;-5.60;99.90;;;;;;5062463;28;20036;-75
2022/01/25 07:57:33;;;;;;;11.50;5.60;;;-5.60;99.90;;;;;;5067056;28;20021;-75
2022/01/25 07:59:59;;;;;;;10.88;6.13;;;-5.50;99.90;;;;;;5059305;28;20021;-74
2022/01/25 08:02:25;;;;;;;10.38;5.07;;;-5.50;99.90;;;;;;5070440;28;20059;-74
2022/01/25 08:04:51;;;;;;;11.85;5.28;;;-5.50;99.90;;;;;;5071210;28;20082;-74
2022/01/25 08:07:17;;;;;;;11.85;5.25;;;-5.50;99.90;;;;;;5069698;28;20044;-69
2022/01/25 08:09:43;;;;;;;13.98;6.15;;;-5.50;99.90;;;;;;5062540;28;20109;-66
2022/01/25 08:12:11;;;;;;;12.20;5.95;;;-5.30;99.90;;;;;;5050144;28;20045;-65
2022/01/25 08:14:38;;;;;;;15.90;6.22;;;-5.40;99.90;;;;;;5068673;28;20032;-67
2022/01/25 08:17:04;;;;;;;11.50;5.95;;;-5.30;99.90;;;;;;5059696;28;20120;-67
2022/01/25 08:19:29;;;;;;;14.50;6.28;;;-5.40;99.90;;;;;;5061750;28;20017;-67
2022/01/25 08:21:55;;;;;;;14.07;6.53;;;-5.40;99.90;;;;;;5070311;28;20139;-67
2022/01/25 08:24:21;;;;;;;13.18;6.72;;;-5.50;99.90;;;;;;5067679;28;20028;-70
2022/01/25 08:26:47;;;;;;;14.23;6.90;;;-5.40;99.90;;;;;;5066876;28;20055;-67
2022/01/25 08:29:14;;;;;;;12.15;6.00;;;-5.30;99.90;;;;;;5060079;28;20128;-66
2022/01/25 08:31:40;;;;;;;15.40;6.82;;;-5.20;99.90;;;;;;5064618;28;20081;-69
2022/01/25 08:34:07;;;;;;;17.45;8.05;;;-5.10;99.90;;;;;;5061997;28;20037;-68
2022/01/25 08:36:33;;;;;;;12.98;8.15;;;-4.90;99.90;;;;;;5068283;28;20047;-68
2022/01/25 08:38:59;;;;;;;19.98;8.15;;;-4.90;99.90;;;;;;5057767;28;20032;-68
2022/01/25 08:41:26;;;;;;;19.45;8.50;;;-4.80;99.90;;;;;;5059480;28;20170;-69
2022/01/25 08:43:52;;;;;;;15.38;8.05;;;-4.90;99.90;;;;;;5063036;28;20545;-67
2022/01/25 08:46:18;;;;;;;15.90;7.47;;;-4.80;99.90;;;;;;5061451;28;20040;-69
2022/01/25 08:48:47;;;;;;;14.73;8.00;;;-4.80;99.90;;;;;;5067423;28;20059;-67
2022/01/25 08:51:14;;;;;;;16.67;8.57;;;-4.70;99.90;;;;;;5061710;28;20043;-68
2022/01/25 08:53:40;;;;;;;16.55;8.27;;;-4.70;99.90;;;;;;5062983;28;20395;-66
2022/01/25 08:56:07;;;;;;;16.92;7.13;;;-4.90;99.90;;;;;;5064853;28;20028;-66
2022/01/25 08:58:33;;;;;;;16.92;7.15;;;-5.20;99.90;;;;;;5058609;28;20102;-68
2022/01/25 09:00:59;;;;;;;11.70;6.00;;;-5.30;99.90;;;;;;5062484;28;20112;-66
2022/01/25 09:03:25;;;;;;;13.13;6.83;;;-5.30;99.90;;;;;;5065891;28;20273;-68
2022/01/25 09:05:50;;;;;;;15.50;7.13;;;-5.20;99.90;;;;;;5068691;28;20273;-66
2022/01/25 09:08:21;;;;;;;16.30;6.75;;;-5.10;99.90;;;;;;5062091;28;20545;-68
2022/01/25 09:10:52;;;;;;;15.20;7.78;;;-5.00;99.90;;;;;;5063273;28;20040;-66
2022/01/25 09:13:20;;;;;;;14.40;7.53;;;-5.00;99.90;;;;;;5062870;28;20107;-67
2022/01/25 09:15:46;;;;;;;13.57;6.63;;;-4.80;99.90;;;;;;5066073;28;20041;-67
2022/01/25 09:18:12;;;;;;;14.25;7.68;;;-4.60;99.90;;;;;;5060840;28;20051;-70
2022/01/25 09:20:38;;;;;;;18.65;8.23;;;-4.20;99.90;;;;;;5060651;28;20131;-69
2022/01/25 09:23:04;;;;;;;15.68;7.03;;;-3.80;99.90;;;;;;5055265;28;20034;-74
2022/01/25 09:25:30;;;;;;;17.17;7.28;;;-3.70;99.90;;;;;;5055972;28;22880;-73
2022/01/25 09:27:57;;;;;;;12.77;6.97;;;-3.80;99.90;;;;;;5068110;28;20142;-70
2022/01/25 09:30:23;;;;;;;15.63;7.55;;;-3.90;99.90;;;;;;5062664;28;20718;-75
2022/01/25 09:32:49;;;;;;;22.42;8.68;;;-4.10;99.90;;;;;;5063585;28;20531;-66
2022/01/25 09:35:15;;;;;;;18.30;9.63;;;-4.10;99.90;;;;;;5055418;28;20033;-66
2022/01/25 09:37:41;;;;;;;19.85;8.70;;;-4.10;99.90;;;;;;5053356;28;20539;-67
2022/01/25 09:40:07;;;;;;;15.73;8.13;;;-3.90;99.90;;;;;;5059285;28;20365;-68
2022/01/25 09:42:33;;;;;;;14.93;6.72;;;-3.80;99.90;;;;;;5064299;28;20459;-66
2022/01/25 09:44:59;;;;;;;12.90;6.60;;;-3.80;99.90;;;;;;5059641;28;20114;-67
2022/01/25 09:47:25;;;;;;;13.02;6.93;;;-3.70;99.90;;;;;;5059872;28;20063;-67
2022/01/25 09:49:51;;;;;;;14.00;7.93;;;-3.60;99.90;;;;;;5055648;28;20396;-69
2022/01/25 09:52:18;;;;;;;11.87;6.00;;;-3.50;99.90;;;;;;5062422;28;20464;-69
2022/01/25 09:54:55;;;;;;;13.65;8.60;;;-3.30;99.90;;;;;;5063191;28;20808;-70
2022/01/25 09:57:23;;;;;;;16.67;7.65;;;-3.00;99.90;;;;;;5063375;28;20519;-67
2022/01/25 09:59:49;;;;;;;14.00;7.25;;;-2.70;99.90;;;;;;5059928;28;20107;-69
2022/01/25 10:02:50;;;;;;;13.77;6.28;;;-2.70;99.90;;;;;;5059877;28;20029;-68
2022/01/25 10:05:30;;;;;;;14.52;7.93;;;-2.40;99.90;;;;;;5062172;28;20104;-70
2022/01/25 10:07:58;;;;;;;13.02;7.20;;;-2.10;99.90;;;;;;5058881;28;20226;-70
2022/01/25 10:10:25;;;;;;;15.05;8.15;;;-2.00;99.90;;;;;;5063689;28;20070;-67
2022/01/25 10:12:51;;;;;;;14.50;7.45;;;-1.90;99.90;;;;;;5060374;28;20507;-68
2022/01/25 10:15:17;;;;;;;21.77;7.78;;;-2.00;99.90;;;;;;5058483;28;21012;-68
2022/01/25 10:17:44;;;;;;;16.63;9.07;;;-1.90;99.90;;;;;;5056202;28;20060;-69
2022/01/25 10:20:33;;;;;;;15.13;8.02;;;-1.90;99.90;;;;;;5058950;28;20029;-67
2022/01/25 10:23:01;;;;;;;15.40;8.10;;;-2.30;99.90;;;;;;5063132;28;20046;-68
2022/01/25 10:25:36;;;;;;;18.50;7.22;;;-2.30;99.90;;;;;;5060321;28;20056;-67
2022/01/25 10:28:11;;;;;;;16.50;8.65;;;-2.40;99.90;;;;;;5060278;28;20448;-67
2022/01/25 10:30:39;;;;;;;17.60;10.00;;;-2.60;99.90;;;;;;5061020;28;20031;-69
2022/01/25 10:33:33;;;;;;;16.45;8.65;;;-3.00;99.90;;;;;;5053651;28;20045;-67
2022/01/25 10:36:15;;;;;;;14.50;7.22;;;-3.10;99.90;;;;;;5057910;28;20107;-69
2022/01/25 10:38:43;;;;;;;17.30;7.55;;;-3.20;99.90;;;;;;5059270;28;20032;-68
2022/01/25 10:41:17;;;;;;;15.50;7.95;;;-3.10;99.90;;;;;;5059165;28;20028;-68
2022/01/25 10:43:45;;;;;;;17.95;7.70;;;-3.00;99.90;;;;;;5062274;28;20044;-68
2022/01/25 10:46:17;;;;;;;13.10;7.50;;;-3.10;99.90;;;;;;5058168;28;20111;-70
2022/01/25 10:48:48;;;;;;;15.68;7.38;;;-3.10;99.90;;;;;;5056546;28;20068;-71
2022/01/25 10:51:26;;;;;;;16.55;9.45;;;-3.20;99.90;;;;;;5053928;28;20039;-66
2022/01/25 10:54:14;;;;;;;17.52;9.02;;;-3.10;99.90;;;;;;5057977;28;20036;-67
2022/01/25 10:56:53;;;;;;;18.00;9.10;;;-3.00;99.90;;;;;;5058033;28;20108;-68
2022/01/25 10:59:23;;;;;;;15.07;8.13;;;-3.10;99.90;;;;;;5059541;28;20078;-69
2022/01/25 11:01:54;;;;;;;15.38;8.15;;;-2.90;99.90;;;;;;5058592;28;20025;-68
2022/01/25 11:04:31;;;;;;;17.73;7.93;;;-2.70;99.90;;;;;;5061088;28;20037;-68
2022/01/25 11:07:02;;;;;;;15.52;7.90;;;-2.40;99.90;;;;;;5060943;28;20103;-67
2022/01/25 11:09:35;;;;;;;15.45;7.63;;;-2.40;99.90;;;;;;5061293;28;20036;-68
2022/01/25 11:12:04;;;;;;;19.25;9.15;;;-2.30;99.90;;;;;;5059048;28;20041;-68
2022/01/25 11:17:15;;;;;;;15.90;8.20;;;-2.50;99.90;;;;;;5056212;28;20043;-68
2022/01/25 11:19:41;;;;;;;14.02;7.85;;;-2.50;99.90;;;;;;5058875;28;20400;-67
2022/01/25 11:22:10;;;;;;;15.90;8.30;;;-2.60;99.90;;;;;;5059441;28;20123;-66
2022/01/25 11:24:38;;;;;;;14.20;7.68;;;-2.70;99.90;;;;;;5059861;28;20128;-67
2022/01/25 11:27:06;;;;;;;15.10;8.50;;;-2.80;99.90;;;;;;5059439;28;20025;-70
2022/01/25 11:29:37;;;;;;;15.85;7.75;;;-2.80;99.90;;;;;;5066594;28;20634;-67
2022/01/25 11:32:08;;;;;;;15.30;7.72;;;-2.90;99.90;;;;;;5059445;28;20052;-67
2022/01/25 11:34:36;;;;;;;17.35;8.18;;;-3.00;99.90;;;;;;5062762;28;20039;-68
2022/01/25 11:37:07;;;;;;;13.63;7.40;;;-3.30;99.90;;;;;;5063489;28;20107;-67
2022/01/25 11:39:35;;;;;;;12.35;7.57;;;-3.50;99.90;;;;;;5058634;28;20036;-66
2022/01/25 11:42:14;;;;;;;13.55;7.18;;;-3.50;99.90;;;;;;5056994;28;20510;-66
2022/01/25 11:44:57;;;;;;;14.98;8.25;;;-3.30;99.90;;;;;;5056388;28;20128;-69
2022/01/25 11:47:34;;;;;;;15.13;6.78;;;-3.10;99.90;;;;;;5073301;28;20119;-66
2022/01/25 11:50:01;;;;;;;;;;;-2.80;99.90;;;;;;5064295;28;20068;-65
2022/01/25 11:52:29;;;;;;;14.93;6.63;;;-2.60;99.90;;;;;;5062614;28;19913;-66
2022/01/25 11:55:17;;;;;;;15.77;7.03;;;-2.60;99.90;;;;;;5069623;28;20491;-66
2022/01/25 11:58:11;;;;;;;18.52;8.07;;;-2.80;99.90;;;;;;5065735;28;20133;-67
2022/01/25 12:00:46;;;;;;;14.73;7.10;;;-2.80;99.90;;;;;;5057576;28;20043;-67
2022/01/25 12:03:42;;;;;;;15.45;7.40;;;-3.00;99.90;;;;;;5063593;28;20040;-67
2022/01/25 12:06:20;;;;;;;14.32;7.80;;;-3.00;99.90;;;;;;5058568;28;20792;-66
2022/01/25 12:11:45;;;;;;;15.80;8.48;;;-3.00;99.90;;;;;;5061896;28;20365;-71
2022/01/25 12:14:39;;;;;;;18.02;8.07;;;-3.20;99.90;;;;;;5060355;28;20490;-69
2022/01/25 12:17:05;;;;;;;20.52;8.35;;;-3.30;99.90;;;;;;5064063;28;20031;-68
2022/01/25 12:19:30;;;;;;;14.95;7.60;;;-3.20;99.90;;;;;;5057694;28;20824;-69
2022/01/25 12:21:58;;;;;;;17.30;7.57;;;-3.40;99.90;;;;;;5074234;28;20059;-67
2022/01/25 12:24:37;;;;;;;13.93;8.80;;;-3.50;99.90;;;;;;5064011;28;20036;-68
2022/01/25 12:27:22;;;;;;;14.73;7.78;;;-3.50;99.90;;;;;;5059665;28;20029;-70
2022/01/25 12:30:27;;;;;;;12.27;6.32;;;-3.40;99.90;;;;;;5058110;28;20123;-67
2022/01/25 12:33:03;;;;;;;16.50;6.90;;;-3.50;99.90;;;;;;5062478;28;20063;-67
2022/01/25 12:36:03;;;;;;;12.13;5.90;;;-3.60;99.90;;;;;;5063001;28;20435;-67
2022/01/25 12:38:43;;;;;;;16.92;8.13;;;-3.70;99.90;;;;;;5064234;28;20307;-69
2022/01/25 12:41:30;;;;;;;16.80;7.72;;;-4.00;99.90;;;;;;5064308;28;20025;-66
2022/01/25 12:43:59;;;;;;;13.68;8.05;;;-4.10;99.90;;;;;;5064669;28;20040;-68
2022/01/25 12:46:33;;;;;;;14.10;7.85;;;-4.00;99.90;;;;;;5062606;28;20748;-70
2022/01/25 12:49:05;;;;;;;17.38;7.43;;;-4.10;99.90;;;;;;5059553;28;20432;-66
2022/01/25 12:51:33;;;;;;;15.68;7.95;;;-4.00;99.90;;;;;;5063263;28;20391;-66
2022/01/25 12:54:03;;;;;;;16.17;7.68;;;-4.10;99.90;;;;;;5064200;28;20037;-67
2022/01/25 12:56:37;;;;;;;14.32;7.22;;;-4.10;99.90;;;;;;5060145;28;20021;-71
2022/01/25 12:59:08;;;;;;;18.92;9.55;;;-4.10;99.90;;;;;;5062451;28;20506;-67
2022/01/25 13:01:37;;;;;;;14.90;7.43;;;-4.10;99.90;;;;;;5059181;28;20112;-67
2022/01/25 13:04:05;;;;;;;17.55;7.47;;;-4.10;99.90;;;;;;5062981;28;20542;-70
2022/01/25 13:06:36;;;;;;;16.85;8.15;;;-4.10;99.90;;;;;;5061358;28;20024;-67
2022/01/25 13:09:12;;;;;;;17.58;7.93;;;-4.30;99.90;;;;;;5056470;28;20131;-67
2022/01/25 13:14:30;;;;;;;16.52;9.95;;;-4.30;99.90;;;;;;5060993;28;20033;-65
2022/01/25 13:17:15;;;;;;;19.65;8.80;;;-4.20;99.90;;;;;;5066582;28;20381;-66
2022/01/25 13:19:52;;;;;;;18.05;8.48;;;-4.10;99.90;;;;;;5053946;28;20028;-66
2022/01/25 13:22:48;;;;;;;17.55;8.15;;;-4.00;99.90;;;;;;5076951;28;20039;-67
2022/01/25 13:27:56;;;;;;;16.90;8.23;;;-4.00;99.90;;;;;;5056735;28;20392;-67
2022/01/25 13:30:45;;;;;;;18.17;9.43;;;-4.10;99.90;;;;;;5058638;28;20041;-63
2022/01/25 13:33:19;;;;;;;19.65;8.57;;;-4.10;99.90;;;;;;5066501;28;20033;-64
2022/01/25 13:35:50;;;;;;;15.30;8.48;;;-4.20;99.90;;;;;;5065110;28;20024;-69
2022/01/25 13:38:36;;;;;;;20.30;9.27;;;-4.10;99.90;;;;;;5065296;28;20028;-66
2022/01/25 13:46:14;;;;;;;18.73;8.70;;;-4.20;99.90;;;;;;5053048;28;20062;-67
2022/01/25 13:48:40;;;;;;;23.02;9.25;;;-4.20;99.90;;;;;;5063403;28;20063;-69
2022/01/25 13:51:12;;;;;;;19.13;9.90;;;-4.20;99.90;;;;;;5061086;28;20032;-68
2022/01/25 13:53:39;;;;;;;18.80;9.63;;;-4.20;99.90;;;;;;5059772;28;20041;-69
2022/01/25 13:56:12;;;;;;;16.85;9.50;;;-4.20;99.90;;;;;;5059661;28;20025;-68
2022/01/25 13:58:40;;;;;;;21.27;9.75;;;-4.20;99.90;;;;;;5061816;28;20029;-66
2022/01/25 14:01:09;;;;;;;18.02;9.07;;;-4.10;99.90;;;;;;5061030;28;20020;-69
2022/01/25 14:03:41;;;;;;;16.75;8.75;;;-4.10;99.90;;;;;;5059160;28;20535;-67
2022/01/25 14:06:20;;;;;;;25.77;9.38;;;-4.10;99.90;;;;;;5056424;28;20111;-66
2022/01/25 14:08:47;;;;;;;19.92;9.27;;;-4.30;99.90;;;;;;5061484;28;20033;-66
2022/01/25 14:11:27;;;;;;;20.02;8.05;;;-4.20;99.90;;;;;;5064769;28;20029;-68
2022/01/25 14:24:36;;;;;;;19.75;9.77;;;-4.40;99.90;;;;;;5060935;28;20032;-67
2022/01/25 14:27:27;;;;;;;19.55;9.93;;;-4.50;99.90;;;;;;5059800;28;20506;-70
2022/01/25 14:29:53;;;;;;;16.48;8.02;;;-4.50;99.90;;;;;;5064584;28;20052;-67
2022/01/25 14:32:30;;;;;;;18.30;9.05;;;-4.50;99.90;;;;;;5065448;28;20040;-68
2022/01/25 14:35:12;;;;;;;19.35;9.68;;;-4.60;99.90;;;;;;5061596;28;20495;-68
2022/01/25 14:37:48;;;;;;;19.13;10.30;;;-4.50;99.90;;;;;;5075591;28;20020;-68
2022/01/25 14:40:16;;;;;;;20.85;8.77;;;-4.60;99.90;;;;;;5060886;28;20056;-68
2022/01/25 14:42:44;;;;;;;19.45;10.00;;;-4.70;99.90;;;;;;5059509;28;20037;-68
2022/01/25 14:45:19;;;;;;;21.50;11.15;;;-4.80;99.90;;;;;;5061201;28;20039;-70
2022/01/25 14:47:47;;;;;;;24.92;10.35;;;-4.80;99.90;;;;;;5060833;28;20036;-67
2022/01/25 14:50:20;;;;;;;222.18;105.00;;;-4.70;99.90;;;;;;5056647;28;20074;-65
2022/01/25 14:53:08;;;;;;;32.03;21.08;;;-4.70;99.90;;;;;;5058376;28;20029;-66
2022/01/25 14:55:36;;;;;;;22.92;10.07;;;-4.50;99.90;;;;;;5060589;28;20793;-68
2022/01/25 15:00:44;;;;;;;17.50;9.98;;;-4.50;99.90;;;;;;5054643;28;20024;-67
2022/01/25 15:03:10;;;;;;;24.15;10.35;;;-4.40;99.90;;;;;;5059891;28;20064;-67
2022/01/25 15:05:36;;;;;;;15.55;9.27;;;-4.40;99.90;;;;;;5056307;28;20108;-67
2022/01/25 15:08:02;;;;;;;26.60;10.45;;;-4.30;99.90;;;;;;5063492;28;20804;-68
2022/01/25 15:10:31;;;;;;;25.00;11.13;;;-4.40;99.90;;;;;;5062653;28;20033;-67
2022/01/25 15:12:57;;;;;;;22.10;10.02;;;-4.50;99.90;;;;;;5061110;28;20043;-66
2022/01/25 15:15:34;;;;;;;22.08;10.57;;;-4.50;99.90;;;;;;5060839;28;20871;-68